Time;durP1;ratioP1;P1;durP2;ratioP2;P2;SDS_P1;SDS_P2;PMS_P1;PMS_P2;Temp;Humidity;BMP_temperature;BMP_pressure;BME280_temperature;BME280_humidity;BME280_pressure;Samples;Min_cycle;Max_cycle;Signal;HPM_P1;HPM_P2
2023/05/31 00:00:18;;;;;;;3.47;2.33;;;10.60;99.90;;;;;;5101990;28;20998;-51
2023/05/31 00:02:46;;;;;;;7.00;2.80;;;10.60;99.90;;;;;;5103315;28;20208;-51
2023/05/31 00:05:13;;;;;;;4.33;2.37;;;10.60;99.90;;;;;;5094922;28;20217;-53
2023/05/31 00:07:40;;;;;;;3.80;2.90;;;10.50;99.90;;;;;;5091208;28;20205;-53
2023/05/31 00:10:08;;;;;;;4.63;2.60;;;10.50;99.90;;;;;;5103039;28;20709;-54
2023/05/31 00:12:35;;;;;;;6.73;2.80;;;10.40;99.90;;;;;;5097994;28;20229;-48
2023/05/31 00:15:02;;;;;;;6.80;2.60;;;10.40;99.90;;;;;;5097808;28;20225;-51
2023/05/31 00:17:31;;;;;;;3.50;2.40;;;10.20;99.90;;;;;;5097937;28;20832;-52
2023/05/31 00:19:57;;;;;;;6.20;2.70;;;10.20;99.90;;;;;;5098644;28;20209;-54
2023/05/31 00:22:25;;;;;;;4.30;2.80;;;10.30;99.90;;;;;;5089581;28;22243;-51
2023/05/31 00:24:52;;;;;;;5.77;2.60;;;10.30;99.90;;;;;;5105740;28;20203;-51
2023/05/31 00:27:19;;;;;;;4.30;2.47;;;10.30;99.90;;;;;;5095963;28;20307;-48
2023/05/31 00:29:46;;;;;;;6.50;3.20;;;10.30;99.90;;;;;;5098927;28;20262;-52
2023/05/31 00:32:13;;;;;;;5.53;2.83;;;10.30;99.90;;;;;;5090375;28;20208;-53
2023/05/31 00:34:42;;;;;;;3.97;2.60;;;10.30;99.90;;;;;;5102193;28;20204;-48
2023/05/31 00:37:09;;;;;;;3.87;2.80;;;10.30;99.90;;;;;;5101720;28;20661;-53
2023/05/31 00:39:36;;;;;;;5.80;2.80;;;10.20;99.90;;;;;;5091233;28;20234;-51
2023/05/31 00:42:03;;;;;;;4.90;2.77;;;10.20;99.90;;;;;;5102741;28;20260;-55
2023/05/31 00:44:30;;;;;;;4.20;2.90;;;10.20;99.90;;;;;;5099373;28;20289;-52
2023/05/31 00:46:57;;;;;;;6.07;2.80;;;10.20;99.90;;;;;;5087880;28;20312;-53
2023/05/31 00:49:26;;;;;;;3.90;2.60;;;10.10;99.90;;;;;;5101027;28;20281;-48
2023/05/31 00:51:54;;;;;;;5.40;2.90;;;10.10;99.90;;;;;;5103515;28;20568;-51
2023/05/31 00:54:23;;;;;;;5.00;2.90;;;10.00;99.90;;;;;;5087532;28;20201;-50
2023/05/31 00:56:51;;;;;;;2.70;2.50;;;10.00;99.90;;;;;;5104424;28;20305;-51
2023/05/31 00:59:18;;;;;;;6.07;2.90;;;10.00;99.90;;;;;;5094513;28;20857;-50
2023/05/31 01:01:45;;;;;;;3.87;3.10;;;10.00;99.90;;;;;;5094019;28;20205;-47
2023/05/31 01:04:17;;;;;;;3.43;2.60;;;9.90;99.90;;;;;;5101086;28;20217;-49
2023/05/31 01:06:43;;;;;;;5.83;3.30;;;9.90;99.90;;;;;;5104957;28;20223;-50
2023/05/31 01:09:12;;;;;;;2.80;2.60;;;9.80;99.90;;;;;;5079556;28;20216;-52
2023/05/31 01:11:54;;;;;;;4.83;2.90;;;9.80;99.90;;;;;;5100268;28;20200;-52
2023/05/31 01:14:29;;;;;;;4.43;3.27;;;9.80;99.90;;;;;;5086614;28;20181;-49
2023/05/31 01:17:05;;;;;;;5.27;2.83;;;9.80;99.90;;;;;;5093058;28;20281;-54
2023/05/31 01:19:46;;;;;;;6.30;3.20;;;9.70;99.90;;;;;;5101658;28;20201;-51
2023/05/31 01:22:27;;;;;;;5.90;3.17;;;9.70;99.90;;;;;;5100307;28;20192;-53
2023/05/31 01:25:23;;;;;;;5.83;3.10;;;9.70;99.90;;;;;;5085277;28;20201;-52
2023/05/31 01:27:53;;;;;;;6.20;3.33;;;9.70;99.90;;;;;;5092475;28;20864;-52
2023/05/31 01:30:22;;;;;;;5.70;3.07;;;9.60;99.90;;;;;;5097177;28;20194;-48
2023/05/31 01:32:51;;;;;;;8.53;3.10;;;9.60;99.90;;;;;;5096447;28;20205;-49
2023/05/31 01:35:18;;;;;;;4.30;2.90;;;9.60;99.90;;;;;;5100327;28;20929;-54
2023/05/31 01:37:46;;;;;;;6.30;2.90;;;9.60;99.90;;;;;;5104007;28;20586;-48
2023/05/31 01:40:15;;;;;;;6.00;2.97;;;9.60;99.90;;;;;;5076115;28;20232;-55
2023/05/31 01:42:43;;;;;;;4.87;3.37;;;9.60;99.90;;;;;;5095767;28;20185;-55
2023/05/31 01:45:14;;;;;;;3.80;2.67;;;9.50;99.90;;;;;;5099845;28;20232;-52
2023/05/31 01:47:43;;;;;;;4.97;2.83;;;9.50;99.90;;;;;;5094851;28;20209;-52
2023/05/31 01:50:13;;;;;;;6.23;2.77;;;9.40;99.90;;;;;;5098699;28;20181;-51
2023/05/31 01:52:41;;;;;;;3.03;2.63;;;9.30;99.90;;;;;;5102472;28;20190;-52
2023/05/31 01:55:09;;;;;;;7.43;2.80;;;9.40;99.90;;;;;;5074500;28;20217;-55
2023/05/31 01:57:41;;;;;;;4.70;2.77;;;9.40;99.90;;;;;;5096500;28;20223;-55
2023/05/31 02:00:11;;;;;;;4.33;2.80;;;9.40;99.90;;;;;;5099160;28;20217;-56
2023/05/31 02:02:42;;;;;;;5.00;3.00;;;9.30;99.90;;;;;;5104052;28;20204;-50
2023/05/31 02:05:12;;;;;;;3.37;2.80;;;9.30;99.90;;;;;;5080285;28;20221;-55
2023/05/31 02:08:00;;;;;;;5.00;3.07;;;9.30;99.90;;;;;;5095556;28;20464;-54
2023/05/31 02:10:28;;;;;;;4.37;3.40;;;9.30;99.90;;;;;;5074721;28;21385;-53
2023/05/31 02:12:56;;;;;;;4.03;3.47;;;9.30;99.90;;;;;;5102871;28;20224;-54
2023/05/31 02:15:23;;;;;;;5.10;2.90;;;9.30;99.90;;;;;;5099430;28;20239;-49
2023/05/31 02:17:51;;;;;;;3.90;2.60;;;9.30;99.90;;;;;;5098998;28;20220;-55
2023/05/31 02:20:19;;;;;;;4.13;2.70;;;9.20;99.90;;;;;;5080764;28;20206;-55
2023/05/31 02:22:47;;;;;;;2.70;2.23;;;9.10;99.90;;;;;;5094075;28;20220;-54
2023/05/31 02:25:15;;;;;;;5.87;3.10;;;9.10;99.90;;;;;;5094740;28;20903;-50
2023/05/31 02:27:43;;;;;;;5.50;3.10;;;9.10;99.90;;;;;;5083068;28;20205;-53
2023/05/31 02:30:11;;;;;;;5.20;3.10;;;9.00;99.90;;;;;;5098514;28;20197;-54
2023/05/31 02:32:39;;;;;;;4.60;2.97;;;9.00;99.90;;;;;;5103559;28;20216;-49
2023/05/31 02:35:10;;;;;;;4.80;3.53;;;9.00;99.90;;;;;;5089512;28;20213;-56
2023/05/31 02:37:38;;;;;;;5.33;3.03;;;8.90;99.90;;;;;;5089776;28;20235;-53
2023/05/31 02:40:08;;;;;;;4.97;2.90;;;8.90;99.90;;;;;;5098196;28;20601;-54
2023/05/31 02:42:36;;;;;;;3.53;2.90;;;8.90;99.90;;;;;;5083708;28;20202;-53
2023/05/31 02:45:03;;;;;;;3.90;3.20;;;8.90;99.90;;;;;;5099322;28;20322;-56
2023/05/31 02:47:30;;;;;;;7.43;3.60;;;8.80;99.90;;;;;;5101144;28;20196;-50
2023/05/31 02:49:58;;;;;;;3.63;2.60;;;8.80;99.90;;;;;;5094085;28;20190;-54
2023/05/31 02:52:28;;;;;;;5.20;3.30;;;8.80;99.90;;;;;;5076681;28;20194;-51
2023/05/31 02:55:12;;;;;;;4.97;2.90;;;8.80;99.90;;;;;;5101465;28;20855;-51
2023/05/31 02:58:00;;;;;;;8.13;3.00;;;8.90;99.90;;;;;;5092659;28;20198;-55
2023/05/31 03:00:29;;;;;;;6.80;3.17;;;8.90;99.90;;;;;;5116708;27;20221;-52
2023/05/31 03:03:18;;;;;;;4.93;3.13;;;8.90;99.90;;;;;;5098738;28;20208;-54
2023/05/31 03:06:04;;;;;;;5.23;2.87;;;8.90;99.90;;;;;;5026671;28;20262;-54
2023/05/31 03:08:33;;;;;;;5.37;3.17;;;8.90;99.90;;;;;;5010042;28;20234;-54
2023/05/31 03:11:01;;;;;;;3.70;2.73;;;8.90;99.90;;;;;;5050062;28;20207;-55
2023/05/31 03:13:29;;;;;;;4.87;2.80;;;8.80;99.90;;;;;;5011697;28;20327;-55
2023/05/31 03:15:56;;;;;;;4.80;2.90;;;8.80;99.90;;;;;;5039117;28;20587;-54
2023/05/31 03:18:23;;;;;;;3.17;2.53;;;8.80;99.90;;;;;;5044027;28;21068;-54
2023/05/31 03:20:55;;;;;;;4.07;2.87;;;8.80;99.90;;;;;;5047294;28;20208;-55
2023/05/31 03:23:22;;;;;;;4.07;3.37;;;8.80;99.90;;;;;;5042054;28;20263;-51
2023/05/31 03:25:51;;;;;;;4.33;2.97;;;8.90;99.90;;;;;;5026251;28;20239;-51
2023/05/31 03:28:18;;;;;;;5.20;3.30;;;8.90;99.90;;;;;;5019847;28;20190;-54
2023/05/31 03:30:46;;;;;;;3.43;3.13;;;8.90;99.90;;;;;;5052228;28;20567;-54
2023/05/31 03:33:14;;;;;;;5.23;3.00;;;8.90;99.90;;;;;;5031436;28;20203;-54
2023/05/31 03:35:44;;;;;;;4.47;3.17;;;8.90;99.90;;;;;;5048572;28;20849;-54
2023/05/31 03:38:11;;;;;;;4.27;3.30;;;8.80;99.90;;;;;;5047462;28;20780;-56
2023/05/31 03:40:38;;;;;;;4.70;3.60;;;8.80;99.90;;;;;;5056662;28;20727;-55
2023/05/31 03:43:07;;;;;;;5.60;3.73;;;8.80;99.90;;;;;;5036861;28;20203;-56
2023/05/31 03:45:34;;;;;;;6.00;3.00;;;8.80;99.90;;;;;;5018791;28;20227;-54
2023/05/31 03:48:02;;;;;;;3.63;3.27;;;8.90;99.90;;;;;;5035959;28;20705;-54
2023/05/31 03:50:29;;;;;;;6.23;3.13;;;8.90;99.90;;;;;;5042849;28;20196;-51
2023/05/31 03:52:56;;;;;;;4.70;2.90;;;8.90;99.90;;;;;;5056626;28;20188;-54
2023/05/31 03:55:25;;;;;;;8.20;3.63;;;8.90;99.90;;;;;;5038725;28;20306;-55
2023/05/31 03:57:55;;;;;;;4.33;3.00;;;8.90;99.90;;;;;;5025083;28;20246;-54
2023/05/31 04:00:23;;;;;;;5.77;3.23;;;8.90;99.90;;;;;;5006726;28;20211;-56
2023/05/31 04:02:53;;;;;;;3.30;3.00;;;8.90;99.90;;;;;;5037680;28;20204;-56
2023/05/31 04:05:19;;;;;;;4.57;3.43;;;9.00;99.90;;;;;;5043690;28;20298;-52
2023/05/31 04:07:47;;;;;;;3.50;3.20;;;8.90;99.90;;;;;;5023833;28;20658;-56
2023/05/31 04:10:14;;;;;;;5.23;3.33;;;8.80;99.90;;;;;;5031718;28;20195;-55
2023/05/31 04:12:41;;;;;;;5.00;3.27;;;8.80;99.90;;;;;;5045905;28;20196;-55
2023/05/31 04:15:10;;;;;;;6.60;3.50;;;8.90;99.90;;;;;;5020396;28;20370;-55
2023/05/31 04:17:38;;;;;;;3.63;3.20;;;8.90;99.90;;;;;;5045305;28;20238;-56
2023/05/31 04:20:08;;;;;;;4.63;3.77;;;8.80;99.90;;;;;;5047109;28;20636;-54
2023/05/31 04:22:36;;;;;;;8.13;3.50;;;8.90;99.90;;;;;;5050826;28;20199;-55
2023/05/31 04:25:03;;;;;;;6.03;3.57;;;8.90;99.90;;;;;;5043824;28;20222;-55
2023/05/31 04:27:38;;;;;;;3.97;3.20;;;8.90;99.90;;;;;;5033086;28;20271;-54
2023/05/31 04:30:07;;;;;;;7.17;4.03;;;9.00;99.90;;;;;;5035755;28;21230;-56
2023/05/31 04:32:35;;;;;;;6.83;3.70;;;9.00;99.90;;;;;;5014990;28;20214;-58
2023/05/31 04:35:05;;;;;;;4.13;3.37;;;9.00;99.90;;;;;;5021420;28;20695;-57
2023/05/31 04:37:36;;;;;;;6.57;3.83;;;9.10;99.90;;;;;;5029782;28;20616;-55
2023/05/31 04:40:08;;;;;;;9.17;3.93;;;9.10;99.90;;;;;;5032740;28;20214;-50
2023/05/31 04:42:36;;;;;;;6.43;3.80;;;9.20;99.90;;;;;;5039202;28;20282;-52
2023/05/31 04:45:07;;;;;;;5.03;4.20;;;9.20;99.90;;;;;;5049037;28;20905;-51
2023/05/31 04:47:39;;;;;;;5.13;3.73;;;9.20;99.90;;;;;;5024663;28;20207;-54
2023/05/31 04:50:08;;;;;;;6.87;4.30;;;9.30;99.90;;;;;;5052700;28;20215;-55
2023/05/31 04:52:39;;;;;;;5.13;3.83;;;9.30;99.90;;;;;;5021939;28;20208;-55
2023/05/31 04:55:08;;;;;;;6.13;3.63;;;9.30;99.90;;;;;;5021178;28;20226;-55
2023/05/31 04:57:35;;;;;;;7.00;4.07;;;9.40;99.90;;;;;;5048101;28;20263;-55
2023/05/31 05:00:08;;;;;;;7.17;5.00;;;9.40;99.90;;;;;;5054703;28;20284;-53
2023/05/31 05:02:37;;;;;;;5.17;4.30;;;9.50;99.90;;;;;;5025624;28;20221;-55
2023/05/31 05:05:06;;;;;;;6.50;4.10;;;9.60;99.90;;;;;;5037928;28;20207;-54
2023/05/31 05:07:35;;;;;;;10.30;4.40;;;9.60;99.90;;;;;;5023208;28;20220;-55
2023/05/31 05:10:03;;;;;;;8.07;4.50;;;9.70;99.90;;;;;;5046405;28;20196;-55
2023/05/31 05:12:30;;;;;;;6.70;4.57;;;9.80;99.90;;;;;;5035117;28;20204;-55
2023/05/31 05:14:58;;;;;;;6.77;4.37;;;9.90;99.90;;;;;;5031262;28;20198;-56
2023/05/31 05:17:27;;;;;;;6.43;4.60;;;9.90;99.90;;;;;;5041095;28;20229;-49
2023/05/31 05:19:55;;;;;;;11.03;4.87;;;10.00;99.90;;;;;;5025605;28;20228;-53
2023/05/31 05:22:23;;;;;;;5.67;4.60;;;10.10;99.90;;;;;;5045037;28;20207;-55
2023/05/31 05:24:51;;;;;;;8.60;4.20;;;10.10;99.90;;;;;;5038911;28;20199;-54
2023/05/31 05:27:21;;;;;;;8.03;4.20;;;10.20;99.90;;;;;;5029334;28;20196;-48
2023/05/31 05:29:48;;;;;;;7.10;4.50;;;10.30;99.90;;;;;;5037949;28;20192;-55
2023/05/31 05:32:16;;;;;;;6.67;4.57;;;10.40;99.90;;;;;;5033564;28;20208;-54
2023/05/31 05:34:43;;;;;;;6.40;4.33;;;10.50;99.90;;;;;;5043532;28;20196;-50
2023/05/31 05:37:10;;;;;;;5.20;4.17;;;10.50;99.90;;;;;;5038269;28;20201;-52
2023/05/31 05:39:37;;;;;;;7.70;4.47;;;10.70;99.90;;;;;;5028965;28;20226;-53
2023/05/31 05:42:07;;;;;;;8.03;4.20;;;10.80;99.90;;;;;;5030628;28;20188;-50
2023/05/31 05:44:35;;;;;;;8.57;4.80;;;10.90;99.90;;;;;;5035681;28;20577;-55
2023/05/31 05:47:03;;;;;;;9.07;4.73;;;11.00;99.90;;;;;;5038774;28;20286;-52
2023/05/31 05:49:30;;;;;;;6.10;4.10;;;11.10;99.90;;;;;;5014023;28;20199;-54
2023/05/31 05:51:57;;;;;;;4.63;3.70;;;11.30;99.90;;;;;;5036102;28;20290;-49
2023/05/31 05:54:25;;;;;;;7.20;4.10;;;11.40;99.90;;;;;;5015740;28;20331;-54
2023/05/31 05:56:52;;;;;;;5.13;3.70;;;11.60;99.90;;;;;;5048869;28;20798;-52
2023/05/31 05:59:21;;;;;;;6.07;3.23;;;11.80;99.90;;;;;;5034809;28;20222;-51
2023/05/31 06:02:11;;;;;;;6.80;3.60;;;12.00;99.90;;;;;;5017980;28;20200;-54
2023/05/31 06:04:40;;;;;;;5.43;3.53;;;12.20;99.90;;;;;;5005751;28;20211;-51
2023/05/31 06:07:07;;;;;;;6.63;3.90;;;12.30;99.90;;;;;;5032450;28;20584;-53
2023/05/31 06:09:34;;;;;;;5.63;3.33;;;12.40;99.90;;;;;;5026983;28;20219;-55
2023/05/31 06:12:23;;;;;;;7.33;2.93;;;12.50;99.90;;;;;;5038741;28;20218;-54
2023/05/31 06:14:52;;;;;;;5.63;2.77;;;12.50;99.90;;;;;;5044101;28;20623;-55
2023/05/31 06:17:21;;;;;;;6.57;3.07;;;12.60;99.90;;;;;;5048422;28;20194;-55
2023/05/31 06:19:50;;;;;;;4.63;2.97;;;12.70;99.90;;;;;;5024969;28;20258;-52
2023/05/31 06:22:17;;;;;;;3.20;2.60;;;12.80;99.90;;;;;;5035740;28;20196;-55
2023/05/31 06:24:43;;;;;;;3.73;3.03;;;13.00;99.90;;;;;;5051313;28;20222;-52
2023/05/31 06:27:14;;;;;;;3.83;2.60;;;13.10;99.90;;;;;;5039415;28;20188;-53
2023/05/31 06:29:44;;;;;;;3.33;2.50;;;13.20;99.90;;;;;;5042096;28;20223;-52
2023/05/31 06:32:22;;;;;;;5.47;2.43;;;13.40;99.90;;;;;;5036967;28;20282;-52
2023/05/31 06:34:51;;;;;;;3.70;2.20;;;13.50;99.90;;;;;;5033141;28;20905;-53
2023/05/31 06:37:19;;;;;;;4.70;2.40;;;13.60;99.90;;;;;;5028121;28;20196;-52
2023/05/31 06:39:46;;;;;;;5.20;2.90;;;13.70;99.90;;;;;;5039864;28;20223;-48
2023/05/31 06:42:13;;;;;;;3.70;2.70;;;13.90;99.90;;;;;;5051744;28;20188;-54
2023/05/31 06:45:03;;;;;;;4.03;2.80;;;14.00;99.90;;;;;;5032393;28;20239;-52
2023/05/31 06:47:42;;;;;;;5.37;2.40;;;14.10;99.90;;;;;;5029533;28;20614;-54
2023/05/31 06:50:15;;;;;;;6.07;3.00;;;14.20;99.90;;;;;;5018702;28;20208;-53
2023/05/31 06:52:46;;;;;;;6.40;2.60;;;14.30;99.90;;;;;;5039620;28;20706;-51
2023/05/31 06:55:28;;;;;;;7.30;3.20;;;14.50;99.90;;;;;;5046685;28;20282;-54
2023/05/31 06:57:56;;;;;;;4.87;3.10;;;14.60;99.90;;;;;;5060561;28;20282;-50
2023/05/31 07:00:26;;;;;;;6.67;3.03;;;14.80;99.90;;;;;;5038074;28;20239;-52
2023/05/31 07:02:55;;;;;;;7.00;2.90;;;14.90;99.90;;;;;;5028808;28;20295;-50
2023/05/31 07:05:24;;;;;;;5.67;2.83;;;15.10;99.90;;;;;;5030904;28;24378;-55
2023/05/31 07:07:51;;;;;;;5.43;2.97;;;15.10;99.90;;;;;;5032821;28;20283;-48
2023/05/31 07:10:19;;;;;;;4.63;2.60;;;15.20;99.90;;;;;;5037429;28;20192;-53
2023/05/31 07:12:47;;;;;;;3.07;2.63;;;15.40;99.90;;;;;;5049850;28;20208;-53
2023/05/31 07:15:15;;;;;;;4.97;2.50;;;15.50;99.90;;;;;;5036384;28;20801;-53
2023/05/31 07:17:42;;;;;;;5.10;2.00;;;15.60;99.90;;;;;;5053302;28;20957;-49
2023/05/31 07:20:32;;;;;;;12.97;2.63;;;15.70;99.90;;;;;;5027135;28;20301;-52
2023/05/31 07:23:00;;;;;;;5.10;2.30;;;15.80;99.90;;;;;;5017569;28;20215;-51
2023/05/31 07:25:27;;;;;;;5.10;2.23;;;15.90;99.90;;;;;;5027519;28;20236;-53
2023/05/31 07:27:55;;;;;;;4.87;2.00;;;15.90;99.90;;;;;;5039835;28;20270;-56
2023/05/31 07:30:21;;;;;;;3.97;2.23;;;16.00;99.90;;;;;;5025867;28;20226;-56
2023/05/31 07:32:49;;;;;;;6.33;1.80;;;16.10;99.90;;;;;;5029625;28;20299;-52
2023/05/31 07:35:16;;;;;;;3.93;1.83;;;16.20;99.90;;;;;;5021584;28;20204;-53
2023/05/31 07:37:44;;;;;;;3.60;1.67;;;16.30;99.90;;;;;;5027935;28;20302;-54
2023/05/31 07:40:11;;;;;;;5.27;2.13;;;16.30;99.90;;;;;;5028013;28;20241;-52
2023/05/31 07:42:38;;;;;;;5.77;2.00;;;16.40;99.90;;;;;;5024056;28;20299;-54
2023/05/31 07:45:06;;;;;;;4.03;2.20;;;16.40;99.90;;;;;;5023655;28;20801;-53
2023/05/31 07:47:32;;;;;;;2.50;2.00;;;16.50;99.90;;;;;;5026565;28;20216;-50
2023/05/31 07:49:59;;;;;;;3.17;1.87;;;16.50;99.90;;;;;;5032821;28;20270;-54
2023/05/31 07:52:26;;;;;;;4.07;1.93;;;16.60;99.90;;;;;;5012839;28;20215;-51
2023/05/31 07:54:55;;;;;;;3.67;1.70;;;16.70;99.90;;;;;;5020217;28;20253;-53
2023/05/31 07:57:22;;;;;;;3.77;2.17;;;16.90;99.90;;;;;;5013714;28;20250;-49
2023/05/31 07:59:51;;;;;;;3.00;1.70;;;16.90;99.90;;;;;;5027933;28;20246;-56
2023/05/31 08:02:18;;;;;;;2.67;1.80;;;16.90;99.90;;;;;;5029255;28;20891;-50
2023/05/31 08:04:44;;;;;;;4.17;1.77;;;17.00;99.90;;;;;;5030364;28;20192;-52
2023/05/31 08:07:11;;;;;;;1.80;1.50;;;17.10;99.90;;;;;;5024733;28;20188;-51
2023/05/31 08:09:38;;;;;;;5.17;2.03;;;17.20;99.90;;;;;;5007742;28;20305;-52
2023/05/31 08:12:07;;;;;;;2.80;1.77;;;17.20;99.90;;;;;;5022673;28;20219;-53
2023/05/31 08:14:34;;;;;;;3.20;1.70;;;17.20;99.90;;;;;;5031563;28;20203;-53
2023/05/31 08:17:00;;;;;;;4.27;2.47;;;17.30;99.90;;;;;;5028264;28;20219;-54
2023/05/31 08:19:27;;;;;;;2.50;2.10;;;17.40;99.90;;;;;;5032469;28;20248;-55
2023/05/31 08:21:54;;;;;;;6.13;3.70;;;17.50;99.90;;;;;;5030931;28;20677;-54
2023/05/31 08:24:21;;;;;;;5.17;3.10;;;17.60;99.90;;;;;;5010069;28;20215;-52
2023/05/31 08:26:47;;;;;;;5.40;2.63;;;17.60;99.90;;;;;;5032311;28;20227;-54
2023/05/31 08:29:15;;;;;;;5.83;2.30;;;17.80;99.90;;;;;;5031761;28;20305;-52
2023/05/31 08:31:42;;;;;;;3.77;1.60;;;17.90;99.90;;;;;;5034597;28;20913;-55
2023/05/31 08:34:09;;;;;;;4.47;1.93;;;18.00;99.90;;;;;;5030869;28;20191;-48
2023/05/31 08:36:36;;;;;;;2.90;1.57;;;18.10;99.90;;;;;;5029902;28;20287;-55
2023/05/31 08:39:03;;;;;;;3.10;2.00;;;18.10;99.90;;;;;;5011473;28;20211;-57
2023/05/31 08:41:35;;;;;;;5.13;2.10;;;18.10;99.90;;;;;;5033596;28;20298;-51
2023/05/31 08:44:03;;;;;;;4.27;1.70;;;18.10;99.90;;;;;;5027652;28;20211;-50
2023/05/31 08:46:32;;;;;;;3.97;2.50;;;18.20;99.90;;;;;;5025550;28;20227;-54
2023/05/31 08:49:06;;;;;;;3.77;1.90;;;18.10;99.90;;;;;;5032605;28;20210;-55
2023/05/31 08:51:35;;;;;;;4.50;1.60;;;18.20;99.90;;;;;;5024399;28;20215;-56
2023/05/31 08:54:02;;;;;;;5.43;2.07;;;18.30;99.90;;;;;;5021740;28;20215;-56
2023/05/31 08:56:30;;;;;;;3.27;1.77;;;18.40;99.90;;;;;;5024285;28;20306;-55
2023/05/31 08:58:58;;;;;;;4.73;2.03;;;18.50;99.90;;;;;;5028596;28;20578;-57
2023/05/31 09:01:27;;;;;;;8.73;2.07;;;18.60;99.90;;;;;;5024228;28;20269;-56
2023/05/31 09:03:56;;;;;;;5.87;1.90;;;18.70;99.90;;;;;;5015945;28;20229;-52
2023/05/31 09:06:23;;;;;;;3.63;2.53;;;18.70;99.90;;;;;;5014585;28;20227;-57
2023/05/31 09:08:50;;;;;;;4.73;2.10;;;18.80;99.90;;;;;;5026198;28;20192;-53
2023/05/31 09:11:17;;;;;;;64.57;6.13;;;18.70;99.90;;;;;;5013785;28;20227;-53
2023/05/31 09:13:43;;;;;;;11.20;2.77;;;18.80;99.90;;;;;;5028544;28;20199;-52
2023/05/31 09:16:11;;;;;;;13.63;2.67;;;18.90;99.80;;;;;;5040484;28;20219;-51
2023/05/31 09:18:39;;;;;;;5.60;1.90;;;18.90;99.30;;;;;;5017359;28;20291;-55
2023/05/31 09:21:12;;;;;;;2.90;1.93;;;18.90;98.80;;;;;;5019534;28;20204;-54
2023/05/31 09:23:52;;;;;;;2.80;1.63;;;18.80;97.80;;;;;;5032552;28;20200;-51
2023/05/31 09:26:20;;;;;;;4.10;1.53;;;18.70;97.50;;;;;;5032683;28;20214;-46
2023/05/31 09:28:49;;;;;;;4.50;2.23;;;18.70;97.80;;;;;;5010209;28;20230;-51
2023/05/31 09:31:17;;;;;;;6.83;2.47;;;18.80;97.80;;;;;;5032150;28;20282;-47
2023/05/31 09:33:45;;;;;;;6.60;2.40;;;19.00;97.40;;;;;;5025847;28;20675;-51
2023/05/31 09:36:14;;;;;;;5.63;2.63;;;19.10;97.10;;;;;;5024255;28;20322;-50
2023/05/31 09:38:41;;;;;;;3.03;1.70;;;19.20;96.10;;;;;;5043951;28;20639;-52
2023/05/31 09:41:15;;;;;;;6.03;2.40;;;19.20;95.90;;;;;;5029365;28;20246;-51
2023/05/31 09:43:42;;;;;;;3.97;2.37;;;19.20;95.70;;;;;;5022028;28;20710;-54
2023/05/31 09:46:16;;;;;;;5.80;2.20;;;19.20;95.40;;;;;;5020159;28;20868;-53
2023/05/31 09:48:43;;;;;;;3.90;2.30;;;19.30;95.70;;;;;;5022198;28;20212;-54
2023/05/31 09:51:11;;;;;;;4.87;2.13;;;19.30;95.30;;;;;;5019223;28;20811;-49
2023/05/31 09:53:41;;;;;;;3.87;2.00;;;19.30;94.90;;;;;;5039242;28;20195;-54
2023/05/31 09:56:10;;;;;;;2.23;1.57;;;19.30;94.80;;;;;;5035339;28;20633;-54
2023/05/31 09:58:37;;;;;;;2.20;1.13;;;19.40;94.00;;;;;;5020968;28;20218;-53
2023/05/31 10:01:04;;;;;;;2.30;1.40;;;19.50;92.30;;;;;;5026307;28;20231;-48
2023/05/31 10:03:32;;;;;;;2.93;1.73;;;19.60;91.20;;;;;;5018076;28;20239;-53
2023/05/31 10:06:00;;;;;;;3.30;1.33;;;19.60;90.30;;;;;;5028384;28;20238;-51
2023/05/31 10:08:27;;;;;;;6.13;1.67;;;19.60;88.90;;;;;;5026586;28;20227;-54
2023/05/31 10:10:58;;;;;;;2.90;1.70;;;19.60;89.20;;;;;;5022489;28;20889;-50
2023/05/31 10:13:27;;;;;;;2.83;1.80;;;19.70;90.10;;;;;;5011882;28;20203;-54
2023/05/31 10:15:56;;;;;;;4.50;1.90;;;19.70;89.20;;;;;;5021073;28;20220;-54
2023/05/31 10:18:29;;;;;;;3.83;1.43;;;19.90;99.90;;;;;;5022070;28;20226;-51
2023/05/31 10:21:03;;;;;;;1.67;0.97;;;19.90;93.50;;;;;;5029048;28;20222;-48
2023/05/31 10:23:35;;;;;;;3.57;1.40;;;20.10;87.60;;;;;;5029941;28;20259;-52
2023/05/31 10:26:13;;;;;;;3.70;1.10;;;20.20;89.10;;;;;;5023201;28;20239;-53
2023/05/31 10:28:47;;;;;;;3.20;1.10;;;20.10;90.80;;;;;;5011993;28;20298;-52
2023/05/31 10:31:15;;;;;;;2.40;1.40;;;20.00;92.80;;;;;;5025403;28;20200;-54
2023/05/31 10:33:48;;;;;;;2.37;1.40;;;20.00;94.10;;;;;;5022787;28;20212;-51
2023/05/31 10:36:15;;;;;;;4.00;2.13;;;20.00;95.10;;;;;;5024784;28;20597;-51
2023/05/31 10:38:50;;;;;;;3.07;1.50;;;20.00;88.50;;;;;;5029009;28;20282;-50
2023/05/31 10:41:23;;;;;;;2.63;1.10;;;20.10;88.50;;;;;;5016979;28;20215;-53
2023/05/31 10:43:56;;;;;;;4.00;1.30;;;20.20;89.50;;;;;;5027252;28;20200;-48
2023/05/31 10:46:26;;;;;;;3.87;1.70;;;20.40;97.20;;;;;;5015754;28;20231;-50
2023/05/31 10:48:56;;;;;;;2.80;1.70;;;20.40;84.30;;;;;;5031433;28;20204;-49
2023/05/31 10:51:39;;;;;;;2.17;1.40;;;20.50;84.00;;;;;;5029085;28;20207;-52
2023/05/31 10:54:07;;;;;;;3.30;1.50;;;20.40;83.00;;;;;;5035677;28;20287;-50
2023/05/31 10:56:38;;;;;;;2.33;1.60;;;20.50;85.10;;;;;;5024047;28;20938;-54
2023/05/31 10:59:10;;;;;;;4.93;2.30;;;20.60;84.60;;;;;;5031237;28;20277;-52
2023/05/31 11:01:37;;;;;;;3.40;2.20;;;20.60;84.90;;;;;;5024322;28;21008;-50
2023/05/31 11:04:19;;;;;;;5.20;2.37;;;20.60;85.00;;;;;;5027364;28;20215;-47
2023/05/31 11:06:48;;;;;;;7.30;3.20;;;20.60;87.40;;;;;;5034929;28;20232;-52
2023/05/31 11:09:16;;;;;;;6.53;3.13;;;20.60;87.70;;;;;;5020702;28;20199;-56
2023/05/31 11:11:46;;;;;;;5.90;3.67;;;;;;;;;;5022450;28;20216;-54
2023/05/31 11:14:31;;;;;;;5.50;3.30;;;;;;;;;;5026428;28;20249;-53
2023/05/31 11:17:15;;;;;;;4.03;3.20;;;;;;;;;;5011491;28;20755;-49
2023/05/31 11:19:44;;;;;;;4.47;2.70;;;21.00;89.20;;;;;;5019081;28;20214;-53
2023/05/31 11:22:13;;;;;;;3.33;2.83;;;20.90;90.00;;;;;;5022214;28;20203;-55
2023/05/31 11:24:50;;;;;;;6.83;3.20;;;21.00;90.30;;;;;;5015733;28;20224;-55
2023/05/31 11:27:20;;;;;;;7.07;3.87;;;21.10;90.20;;;;;;5029207;28;20386;-54
2023/05/31 11:29:58;;;;;;;5.87;3.17;;;21.10;90.90;;;;;;5026808;28;20242;-53
2023/05/31 11:32:55;;;;;;;4.33;3.77;;;21.30;95.40;;;;;;5014148;28;20203;-49
2023/05/31 11:35:23;;;;;;;4.70;3.43;;;21.30;99.90;;;;;;5020565;28;20286;-56
2023/05/31 11:37:51;;;;;;;3.70;2.87;;;21.40;99.90;;;;;;5020434;28;20275;-55
2023/05/31 11:40:18;;;;;;;6.10;3.03;;;21.20;99.90;;;;;;5023784;28;20223;-56
2023/05/31 11:42:46;;;;;;;4.43;3.40;;;21.30;99.90;;;;;;5035411;28;20667;-54
2023/05/31 11:45:17;;;;;;;5.03;3.33;;;21.40;99.90;;;;;;5028011;28;20238;-54
2023/05/31 11:47:53;;;;;;;6.10;3.43;;;21.20;99.90;;;;;;5008692;28;20211;-51
2023/05/31 11:50:21;;;;;;;6.37;3.20;;;21.40;99.90;;;;;;5014217;28;20247;-54
2023/05/31 11:52:48;;;;;;;5.03;2.73;;;21.10;99.90;;;;;;5031740;28;20192;-50
2023/05/31 11:55:17;;;;;;;5.27;2.10;;;21.20;99.90;;;;;;5025772;28;20223;-55
2023/05/31 11:57:51;;;;;;;3.80;2.20;;;21.30;99.90;;;;;;5024152;28;20203;-55
2023/05/31 12:00:21;;;;;;;2.37;1.70;;;21.40;99.90;;;;;;5032037;28;20292;-55
2023/05/31 12:02:53;;;;;;;4.20;1.70;;;21.60;99.90;;;;;;5030072;28;20276;-53
2023/05/31 12:05:22;;;;;;;3.40;1.50;;;21.50;99.90;;;;;;5001670;28;20319;-56
2023/05/31 12:07:49;;;;;;;4.07;1.30;;;;;;;;;;5031152;28;20278;-51
2023/05/31 12:10:17;;;;;;;2.17;1.20;;;;;;;;;;5029187;28;20194;-56
2023/05/31 12:12:48;;;;;;;1.40;1.23;;;21.90;99.90;;;;;;5027390;28;20733;-49
2023/05/31 12:15:17;;;;;;;3.67;0.90;;;21.90;92.90;;;;;;5023706;28;20224;-54
2023/05/31 12:17:44;;;;;;;1.33;1.23;;;;;;;;;;5025362;28;20211;-55
2023/05/31 12:20:15;;;;;;;4.33;1.30;;;;;;;;;;5010806;28;20202;-54
2023/05/31 12:22:42;;;;;;;1.80;0.80;;;22.00;99.90;;;;;;5030187;28;20214;-52
2023/05/31 12:25:10;;;;;;;1.30;0.80;;;22.20;93.80;;;;;;5025813;28;20245;-50
2023/05/31 12:27:37;;;;;;;2.20;1.10;;;22.40;93.00;;;;;;5018698;28;20234;-54
2023/05/31 12:30:07;;;;;;;2.75;1.30;;;22.50;92.40;;;;;;5028690;28;20211;-53
2023/05/31 12:32:34;;;;;;;4.40;1.08;;;22.40;91.30;;;;;;5028657;28;20196;-52
2023/05/31 12:35:05;;;;;;;3.60;0.80;;;22.30;91.30;;;;;;4998139;28;22333;-56
2023/05/31 12:37:35;;;;;;;1.98;0.90;;;22.30;91.30;;;;;;5028629;28;20662;-56
2023/05/31 12:40:09;;;;;;;2.63;0.90;;;22.40;91.00;;;;;;5026385;28;20274;-54
2023/05/31 12:42:36;;;;;;;1.90;0.90;;;22.60;90.50;;;;;;5028636;28;20280;-55
2023/05/31 12:45:05;;;;;;;1.45;1.00;;;22.50;90.40;;;;;;5023398;28;20195;-54
2023/05/31 12:47:33;;;;;;;2.17;1.13;;;22.70;90.00;;;;;;5025811;28;20215;-55
2023/05/31 12:50:05;;;;;;;3.23;1.17;;;22.80;89.10;;;;;;5007305;28;20239;-55
2023/05/31 12:52:33;;;;;;;2.75;1.10;;;22.90;90.00;;;;;;5022971;28;20198;-55
2023/05/31 12:55:01;;;;;;;6.93;1.33;;;23.10;88.90;;;;;;5034893;28;20299;-57
2023/05/31 12:57:28;;;;;;;1.70;1.25;;;23.40;87.10;;;;;;5027224;28;20203;-55
2023/05/31 12:59:58;;;;;;;3.15;1.20;;;23.40;85.80;;;;;;5016921;28;20196;-55
2023/05/31 13:02:27;;;;;;;3.03;1.30;;;23.40;84.90;;;;;;5023553;28;20614;-55
2023/05/31 13:04:55;;;;;;;1.70;1.20;;;23.50;84.60;;;;;;5028264;28;20196;-53